sensor_id;sensor_type;location;lat;lon;timestamp;temperature;humidity
38788;DHT22;24536;45.488;12.238;2023-12-20T00:01:50;8.10;95.20
38788;DHT22;24536;45.488;12.238;2023-12-20T00:04:15;8.00;95.10
38788;DHT22;24536;45.488;12.238;2023-12-20T00:06:41;8.00;95.20
38788;DHT22;24536;45.488;12.238;2023-12-20T00:09:06;8.00;95.20
38788;DHT22;24536;45.488;12.238;2023-12-20T00:11:32;7.90;95.30
38788;DHT22;24536;45.488;12.238;2023-12-20T00:13:57;7.90;95.20
38788;DHT22;24536;45.488;12.238;2023-12-20T00:16:23;7.90;95.20
38788;DHT22;24536;45.488;12.238;2023-12-20T00:18:48;7.90;95.30
38788;DHT22;24536;45.488;12.238;2023-12-20T00:21:14;7.90;95.20
38788;DHT22;24536;45.488;12.238;2023-12-20T00:23:40;7.90;95.10
38788;DHT22;24536;45.488;12.238;2023-12-20T00:26:05;7.90;95.10
38788;DHT22;24536;45.488;12.238;2023-12-20T00:28:31;7.90;95.20
38788;DHT22;24536;45.488;12.238;2023-12-20T00:30:56;7.90;95.20
38788;DHT22;24536;45.488;12.238;2023-12-20T00:33:22;7.90;95.10
38788;DHT22;24536;45.488;12.238;2023-12-20T00:35:48;7.90;95.10
38788;DHT22;24536;45.488;12.238;2023-12-20T00:38:13;7.90;95.10
38788;DHT22;24536;45.488;12.238;2023-12-20T00:40:39;7.90;95.10
38788;DHT22;24536;45.488;12.238;2023-12-20T00:43:05;7.90;95.10
38788;DHT22;24536;45.488;12.238;2023-12-20T00:45:30;7.90;95.10
38788;DHT22;24536;45.488;12.238;2023-12-20T00:47:56;7.80;95.10
38788;DHT22;24536;45.488;12.238;2023-12-20T00:50:22;7.90;95.10
38788;DHT22;24536;45.488;12.238;2023-12-20T00:52:47;7.90;95.10
38788;DHT22;24536;45.488;12.238;2023-12-20T00:55:13;7.80;95.10
38788;DHT22;24536;45.488;12.238;2023-12-20T00:57:39;7.80;95.00
38788;DHT22;24536;45.488;12.238;2023-12-20T01:00:05;7.80;95.00
38788;DHT22;24536;45.488;12.238;2023-12-20T01:02:31;7.80;95.10
38788;DHT22;24536;45.488;12.238;2023-12-20T01:04:56;7.80;95.20
38788;DHT22;24536;45.488;12.238;2023-12-20T01:07:22;7.70;95.10
38788;DHT22;24536;45.488;12.238;2023-12-20T01:09:47;7.70;95.20
38788;DHT22;24536;45.488;12.238;2023-12-20T01:12:13;7.60;95.10
38788;DHT22;24536;45.488;12.238;2023-12-20T01:14:38;7.40;95.20
38788;DHT22;24536;45.488;12.238;2023-12-20T01:17:04;7.40;95.20
38788;DHT22;24536;45.488;12.238;2023-12-20T01:19:30;7.30;95.20
38788;DHT22;24536;45.488;12.238;2023-12-20T01:21:55;7.20;95.30
38788;DHT22;24536;45.488;12.238;2023-12-20T01:24:21;7.20;95.50
38788;DHT22;24536;45.488;12.238;2023-12-20T01:26:47;7.20;95.50
38788;DHT22;24536;45.488;12.238;2023-12-20T01:29:12;7.20;95.50
38788;DHT22;24536;45.488;12.238;2023-12-20T01:31:39;7.30;95.50
38788;DHT22;24536;45.488;12.238;2023-12-20T01:34:06;7.30;95.40
38788;DHT22;24536;45.488;12.238;2023-12-20T01:36:31;7.30;95.30
38788;DHT22;24536;45.488;12.238;2023-12-20T01:38:57;7.30;95.30
38788;DHT22;24536;45.488;12.238;2023-12-20T01:41:22;7.30;95.30
38788;DHT22;24536;45.488;12.238;2023-12-20T01:43:48;7.30;95.30
38788;DHT22;24536;45.488;12.238;2023-12-20T01:46:14;7.30;95.30
38788;DHT22;24536;45.488;12.238;2023-12-20T01:48:40;7.30;95.20
38788;DHT22;24536;45.488;12.238;2023-12-20T01:51:05;7.30;95.20
38788;DHT22;24536;45.488;12.238;2023-12-20T01:53:31;7.20;95.20
38788;DHT22;24536;45.488;12.238;2023-12-20T01:55:58;7.30;95.30
38788;DHT22;24536;45.488;12.238;2023-12-20T01:58:23;7.30;95.20
38788;DHT22;24536;45.488;12.238;2023-12-20T02:00:49;7.30;95.20
38788;DHT22;24536;45.488;12.238;2023-12-20T02:03:16;7.30;95.10
38788;DHT22;24536;45.488;12.238;2023-12-20T02:05:41;7.30;95.10
38788;DHT22;24536;45.488;12.238;2023-12-20T02:08:07;7.30;95.10
38788;DHT22;24536;45.488;12.238;2023-12-20T02:10:33;7.30;95.10
38788;DHT22;24536;45.488;12.238;2023-12-20T02:12:59;7.30;95.10
38788;DHT22;24536;45.488;12.238;2023-12-20T02:15:25;7.30;95.00
38788;DHT22;24536;45.488;12.238;2023-12-20T02:17:50;7.30;95.00
38788;DHT22;24536;45.488;12.238;2023-12-20T02:20:16;7.20;95.00
38788;DHT22;24536;45.488;12.238;2023-12-20T02:22:42;7.20;95.10
38788;DHT22;24536;45.488;12.238;2023-12-20T02:25:07;7.20;95.20
38788;DHT22;24536;45.488;12.238;2023-12-20T02:27:34;7.20;95.20
38788;DHT22;24536;45.488;12.238;2023-12-20T02:29:59;7.30;95.20
38788;DHT22;24536;45.488;12.238;2023-12-20T02:32:25;7.30;95.20
38788;DHT22;24536;45.488;12.238;2023-12-20T02:34:51;7.20;95.10
38788;DHT22;24536;45.488;12.238;2023-12-20T02:37:17;7.30;95.10
38788;DHT22;24536;45.488;12.238;2023-12-20T02:39:42;7.30;95.10
38788;DHT22;24536;45.488;12.238;2023-12-20T02:42:08;7.30;95.10
38788;DHT22;24536;45.488;12.238;2023-12-20T02:44:34;7.30;95.10
38788;DHT22;24536;45.488;12.238;2023-12-20T02:46:59;7.30;95.10
38788;DHT22;24536;45.488;12.238;2023-12-20T02:49:25;7.30;95.00
38788;DHT22;24536;45.488;12.238;2023-12-20T02:51:50;7.30;95.00
38788;DHT22;24536;45.488;12.238;2023-12-20T02:54:16;7.40;95.00
38788;DHT22;24536;45.488;12.238;2023-12-20T02:56:41;7.30;94.90
38788;DHT22;24536;45.488;12.238;2023-12-20T02:59:07;7.40;95.00
38788;DHT22;24536;45.488;12.238;2023-12-20T03:01:34;7.40;95.00
38788;DHT22;24536;45.488;12.238;2023-12-20T03:03:59;7.40;94.90
38788;DHT22;24536;45.488;12.238;2023-12-20T03:06:25;7.40;94.90
38788;DHT22;24536;45.488;12.238;2023-12-20T03:08:51;7.40;94.80
38788;DHT22;24536;45.488;12.238;2023-12-20T03:11:16;7.40;94.70
38788;DHT22;24536;45.488;12.238;2023-12-20T03:13:42;7.50;94.50
38788;DHT22;24536;45.488;12.238;2023-12-20T03:16:08;7.50;94.30
38788;DHT22;24536;45.488;12.238;2023-12-20T03:18:33;7.50;94.20
38788;DHT22;24536;45.488;12.238;2023-12-20T03:20:59;7.50;94.10
38788;DHT22;24536;45.488;12.238;2023-12-20T03:23:24;7.50;94.10
38788;DHT22;24536;45.488;12.238;2023-12-20T03:25:51;7.60;94.10
38788;DHT22;24536;45.488;12.238;2023-12-20T03:28:17;7.50;94.00
38788;DHT22;24536;45.488;12.238;2023-12-20T03:30:42;7.50;94.00
38788;DHT22;24536;45.488;12.238;2023-12-20T03:33:08;7.50;94.00
38788;DHT22;24536;45.488;12.238;2023-12-20T03:35:33;7.50;93.90
38788;DHT22;24536;45.488;12.238;2023-12-20T03:37:59;7.40;93.90
38788;DHT22;24536;45.488;12.238;2023-12-20T03:40:25;7.40;93.80
38788;DHT22;24536;45.488;12.238;2023-12-20T03:42:51;7.40;93.80
38788;DHT22;24536;45.488;12.238;2023-12-20T03:45:16;7.40;93.70
38788;DHT22;24536;45.488;12.238;2023-12-20T03:47:42;7.40;93.70
38788;DHT22;24536;45.488;12.238;2023-12-20T03:50:08;7.40;93.70
38788;DHT22;24536;45.488;12.238;2023-12-20T03:52:33;7.40;93.70
38788;DHT22;24536;45.488;12.238;2023-12-20T03:54:59;7.30;93.70
38788;DHT22;24536;45.488;12.238;2023-12-20T03:57:24;7.40;93.70
38788;DHT22;24536;45.488;12.238;2023-12-20T03:59:50;7.40;93.80
38788;DHT22;24536;45.488;12.238;2023-12-20T04:02:16;7.30;93.70
38788;DHT22;24536;45.488;12.238;2023-12-20T04:04:43;7.40;93.80
38788;DHT22;24536;45.488;12.238;2023-12-20T04:07:09;7.30;93.70
38788;DHT22;24536;45.488;12.238;2023-12-20T04:09:34;7.30;93.70
38788;DHT22;24536;45.488;12.238;2023-12-20T04:12:00;7.30;93.80
38788;DHT22;24536;45.488;12.238;2023-12-20T04:14:25;7.30;93.80
38788;DHT22;24536;45.488;12.238;2023-12-20T04:16:51;7.30;93.80
38788;DHT22;24536;45.488;12.238;2023-12-20T04:19:17;7.30;93.80
38788;DHT22;24536;45.488;12.238;2023-12-20T04:21:43;7.20;93.70
38788;DHT22;24536;45.488;12.238;2023-12-20T04:24:08;7.20;93.70
38788;DHT22;24536;45.488;12.238;2023-12-20T04:26:34;7.20;93.70
38788;DHT22;24536;45.488;12.238;2023-12-20T04:28:59;7.20;93.80
38788;DHT22;24536;45.488;12.238;2023-12-20T04:31:25;7.20;93.70
38788;DHT22;24536;45.488;12.238;2023-12-20T04:33:50;7.20;93.80
38788;DHT22;24536;45.488;12.238;2023-12-20T04:36:16;7.20;93.80
38788;DHT22;24536;45.488;12.238;2023-12-20T04:38:41;7.20;93.80
38788;DHT22;24536;45.488;12.238;2023-12-20T04:41:07;7.20;93.80
38788;DHT22;24536;45.488;12.238;2023-12-20T04:43:32;7.20;93.80
38788;DHT22;24536;45.488;12.238;2023-12-20T04:45:58;7.20;93.80
38788;DHT22;24536;45.488;12.238;2023-12-20T04:48:23;7.20;93.90
38788;DHT22;24536;45.488;12.238;2023-12-20T04:50:49;7.20;93.90
38788;DHT22;24536;45.488;12.238;2023-12-20T04:53:15;7.20;93.90
38788;DHT22;24536;45.488;12.238;2023-12-20T04:55:40;7.20;94.00
38788;DHT22;24536;45.488;12.238;2023-12-20T04:58:06;7.20;94.00
38788;DHT22;24536;45.488;12.238;2023-12-20T05:00:31;7.20;94.00
38788;DHT22;24536;45.488;12.238;2023-12-20T05:02:57;7.20;94.00
38788;DHT22;24536;45.488;12.238;2023-12-20T05:05:22;7.20;93.90
38788;DHT22;24536;45.488;12.238;2023-12-20T05:07:48;7.20;93.90
38788;DHT22;24536;45.488;12.238;2023-12-20T05:10:13;7.20;93.90
38788;DHT22;24536;45.488;12.238;2023-12-20T05:12:39;7.10;93.80
38788;DHT22;24536;45.488;12.238;2023-12-20T05:15:05;7.10;93.90
38788;DHT22;24536;45.488;12.238;2023-12-20T05:17:31;7.20;93.90
38788;DHT22;24536;45.488;12.238;2023-12-20T05:19:57;7.20;93.90
38788;DHT22;24536;45.488;12.238;2023-12-20T05:22:22;7.20;93.90
38788;DHT22;24536;45.488;12.238;2023-12-20T05:24:48;7.10;93.80
38788;DHT22;24536;45.488;12.238;2023-12-20T05:27:13;7.10;93.80
38788;DHT22;24536;45.488;12.238;2023-12-20T05:29:39;7.10;93.80
38788;DHT22;24536;45.488;12.238;2023-12-20T05:32:04;7.10;93.90
38788;DHT22;24536;45.488;12.238;2023-12-20T05:34:30;7.00;93.80
38788;DHT22;24536;45.488;12.238;2023-12-20T05:36:57;6.80;93.90
38788;DHT22;24536;45.488;12.238;2023-12-20T05:39:22;6.70;94.10
38788;DHT22;24536;45.488;12.238;2023-12-20T05:41:48;6.70;94.10
38788;DHT22;24536;45.488;12.238;2023-12-20T05:44:13;6.70;94.10
38788;DHT22;24536;45.488;12.238;2023-12-20T05:46:39;6.80;94.20
38788;DHT22;24536;45.488;12.238;2023-12-20T05:49:05;6.80;94.30
38788;DHT22;24536;45.488;12.238;2023-12-20T05:51:31;6.80;94.30
38788;DHT22;24536;45.488;12.238;2023-12-20T05:53:56;6.80;94.30
38788;DHT22;24536;45.488;12.238;2023-12-20T05:56:22;6.80;94.20
38788;DHT22;24536;45.488;12.238;2023-12-20T05:58:47;6.90;94.20
38788;DHT22;24536;45.488;12.238;2023-12-20T06:01:16;6.90;94.20
38788;DHT22;24536;45.488;12.238;2023-12-20T06:03:44;6.90;94.20
38788;DHT22;24536;45.488;12.238;2023-12-20T06:06:11;6.90;94.20
38788;DHT22;24536;45.488;12.238;2023-12-20T06:08:38;6.90;94.30
38788;DHT22;24536;45.488;12.238;2023-12-20T06:11:03;7.00;94.30
38788;DHT22;24536;45.488;12.238;2023-12-20T06:13:29;7.00;94.30
38788;DHT22;24536;45.488;12.238;2023-12-20T06:15:55;7.00;94.40
38788;DHT22;24536;45.488;12.238;2023-12-20T06:18:21;7.00;94.40
38788;DHT22;24536;45.488;12.238;2023-12-20T06:20:46;7.00;94.40
38788;DHT22;24536;45.488;12.238;2023-12-20T06:23:12;7.00;94.40
38788;DHT22;24536;45.488;12.238;2023-12-20T06:25:38;7.00;94.50
38788;DHT22;24536;45.488;12.238;2023-12-20T06:28:04;7.00;94.50
38788;DHT22;24536;45.488;12.238;2023-12-20T06:30:30;7.00;94.50
38788;DHT22;24536;45.488;12.238;2023-12-20T06:32:58;7.00;94.50
38788;DHT22;24536;45.488;12.238;2023-12-20T06:35:24;7.00;94.50
38788;DHT22;24536;45.488;12.238;2023-12-20T06:37:50;6.90;94.70
38788;DHT22;24536;45.488;12.238;2023-12-20T06:40:15;7.00;94.50
38788;DHT22;24536;45.488;12.238;2023-12-20T06:42:41;7.00;94.40
38788;DHT22;24536;45.488;12.238;2023-12-20T06:45:07;7.00;94.30
38788;DHT22;24536;45.488;12.238;2023-12-20T06:47:32;7.10;94.20
38788;DHT22;24536;45.488;12.238;2023-12-20T06:49:58;7.10;94.00
38788;DHT22;24536;45.488;12.238;2023-12-20T06:52:23;7.10;93.90
38788;DHT22;24536;45.488;12.238;2023-12-20T06:54:49;7.00;93.90
38788;DHT22;24536;45.488;12.238;2023-12-20T06:57:14;7.10;93.80
38788;DHT22;24536;45.488;12.238;2023-12-20T06:59:40;7.10;93.70
38788;DHT22;24536;45.488;12.238;2023-12-20T07:02:06;7.10;93.70
38788;DHT22;24536;45.488;12.238;2023-12-20T07:04:31;7.10;93.70
38788;DHT22;24536;45.488;12.238;2023-12-20T07:06:57;7.10;93.70
38788;DHT22;24536;45.488;12.238;2023-12-20T07:09:25;7.20;93.70
38788;DHT22;24536;45.488;12.238;2023-12-20T07:11:51;7.10;93.70
38788;DHT22;24536;45.488;12.238;2023-12-20T07:14:17;7.10;93.70
38788;DHT22;24536;45.488;12.238;2023-12-20T07:16:42;7.10;93.70
38788;DHT22;24536;45.488;12.238;2023-12-20T07:19:08;7.10;93.80
38788;DHT22;24536;45.488;12.238;2023-12-20T07:21:33;7.10;93.90
38788;DHT22;24536;45.488;12.238;2023-12-20T07:23:59;7.10;93.90
38788;DHT22;24536;45.488;12.238;2023-12-20T07:26:25;7.20;94.00
38788;DHT22;24536;45.488;12.238;2023-12-20T07:28:50;7.20;93.90
38788;DHT22;24536;45.488;12.238;2023-12-20T07:31:16;7.20;93.90
38788;DHT22;24536;45.488;12.238;2023-12-20T07:33:42;7.20;93.80
38788;DHT22;24536;45.488;12.238;2023-12-20T07:36:07;7.20;93.90
38788;DHT22;24536;45.488;12.238;2023-12-20T07:38:33;7.20;93.90
38788;DHT22;24536;45.488;12.238;2023-12-20T07:40:59;7.20;93.60
38788;DHT22;24536;45.488;12.238;2023-12-20T07:43:24;7.10;93.70
38788;DHT22;24536;45.488;12.238;2023-12-20T07:45:50;7.20;93.80
38788;DHT22;24536;45.488;12.238;2023-12-20T07:48:15;7.10;93.90
38788;DHT22;24536;45.488;12.238;2023-12-20T07:50:41;7.20;94.00
38788;DHT22;24536;45.488;12.238;2023-12-20T07:53:07;7.20;94.00
38788;DHT22;24536;45.488;12.238;2023-12-20T07:55:33;7.30;93.90
38788;DHT22;24536;45.488;12.238;2023-12-20T07:57:59;7.30;93.80
38788;DHT22;24536;45.488;12.238;2023-12-20T08:00:25;7.40;93.70
38788;DHT22;24536;45.488;12.238;2023-12-20T08:02:51;7.40;93.60
38788;DHT22;24536;45.488;12.238;2023-12-20T08:05:16;7.30;93.50
38788;DHT22;24536;45.488;12.238;2023-12-20T08:07:42;7.20;93.60
38788;DHT22;24536;45.488;12.238;2023-12-20T08:10:07;7.10;93.70
38788;DHT22;24536;45.488;12.238;2023-12-20T08:12:33;7.10;93.80
38788;DHT22;24536;45.488;12.238;2023-12-20T08:14:59;7.20;94.10
38788;DHT22;24536;45.488;12.238;2023-12-20T08:17:25;7.20;93.90
38788;DHT22;24536;45.488;12.238;2023-12-20T08:19:50;7.30;93.90
38788;DHT22;24536;45.488;12.238;2023-12-20T08:22:16;7.40;93.80
38788;DHT22;24536;45.488;12.238;2023-12-20T08:24:41;7.40;93.80
38788;DHT22;24536;45.488;12.238;2023-12-20T08:27:07;7.50;93.80
38788;DHT22;24536;45.488;12.238;2023-12-20T08:29:34;7.50;93.90
38788;DHT22;24536;45.488;12.238;2023-12-20T08:32:00;7.50;93.80
38788;DHT22;24536;45.488;12.238;2023-12-20T08:34:26;7.50;93.70
38788;DHT22;24536;45.488;12.238;2023-12-20T08:36:51;7.50;93.80
38788;DHT22;24536;45.488;12.238;2023-12-20T08:39:17;7.50;93.90
38788;DHT22;24536;45.488;12.238;2023-12-20T08:41:42;7.50;93.90
38788;DHT22;24536;45.488;12.238;2023-12-20T08:44:08;7.50;94.00
38788;DHT22;24536;45.488;12.238;2023-12-20T08:46:34;7.60;94.10
38788;DHT22;24536;45.488;12.238;2023-12-20T08:49:01;7.60;94.10
38788;DHT22;24536;45.488;12.238;2023-12-20T08:51:26;7.70;94.00
38788;DHT22;24536;45.488;12.238;2023-12-20T08:53:53;7.80;94.00
38788;DHT22;24536;45.488;12.238;2023-12-20T08:56:18;7.80;94.00
38788;DHT22;24536;45.488;12.238;2023-12-20T08:58:44;7.80;93.90
38788;DHT22;24536;45.488;12.238;2023-12-20T09:01:10;7.80;94.10
38788;DHT22;24536;45.488;12.238;2023-12-20T09:03:35;7.90;94.00
38788;DHT22;24536;45.488;12.238;2023-12-20T09:06:01;7.90;94.00
38788;DHT22;24536;45.488;12.238;2023-12-20T09:08:27;8.00;94.10
38788;DHT22;24536;45.488;12.238;2023-12-20T09:10:52;8.10;94.10
38788;DHT22;24536;45.488;12.238;2023-12-20T09:13:18;8.10;94.10
38788;DHT22;24536;45.488;12.238;2023-12-20T09:15:43;8.20;94.10
38788;DHT22;24536;45.488;12.238;2023-12-20T09:18:09;8.20;94.10
38788;DHT22;24536;45.488;12.238;2023-12-20T09:20:35;8.20;94.00
38788;DHT22;24536;45.488;12.238;2023-12-20T09:23:00;8.30;94.00
38788;DHT22;24536;45.488;12.238;2023-12-20T09:25:26;8.30;94.00
38788;DHT22;24536;45.488;12.238;2023-12-20T09:27:52;8.40;94.00
38788;DHT22;24536;45.488;12.238;2023-12-20T09:30:18;8.40;94.00
38788;DHT22;24536;45.488;12.238;2023-12-20T09:32:43;8.40;94.00
38788;DHT22;24536;45.488;12.238;2023-12-20T09:35:09;8.40;93.70
38788;DHT22;24536;45.488;12.238;2023-12-20T09:37:34;8.40;93.80
38788;DHT22;24536;45.488;12.238;2023-12-20T09:40:00;8.30;93.80
38788;DHT22;24536;45.488;12.238;2023-12-20T09:45:03;8.40;94.10
38788;DHT22;24536;45.488;12.238;2023-12-20T09:47:32;8.40;94.10
38788;DHT22;24536;45.488;12.238;2023-12-20T09:49:58;8.40;94.20
38788;DHT22;24536;45.488;12.238;2023-12-20T09:52:24;8.40;94.20
38788;DHT22;24536;45.488;12.238;2023-12-20T09:54:49;8.40;94.20
38788;DHT22;24536;45.488;12.238;2023-12-20T09:57:15;8.40;94.20
38788;DHT22;24536;45.488;12.238;2023-12-20T09:59:41;8.40;94.30
38788;DHT22;24536;45.488;12.238;2023-12-20T10:02:07;8.40;94.20
38788;DHT22;24536;45.488;12.238;2023-12-20T10:04:35;8.30;94.40
38788;DHT22;24536;45.488;12.238;2023-12-20T10:07:04;8.30;94.50
38788;DHT22;24536;45.488;12.238;2023-12-20T10:09:29;8.40;94.50
38788;DHT22;24536;45.488;12.238;2023-12-20T10:11:56;8.50;94.60
38788;DHT22;24536;45.488;12.238;2023-12-20T10:14:23;8.70;94.60
38788;DHT22;24536;45.488;12.238;2023-12-20T10:16:49;8.80;94.50
38788;DHT22;24536;45.488;12.238;2023-12-20T10:19:19;8.90;94.40
38788;DHT22;24536;45.488;12.238;2023-12-20T10:21:44;9.00;94.20
38788;DHT22;24536;45.488;12.238;2023-12-20T10:24:11;9.10;94.10
38788;DHT22;24536;45.488;12.238;2023-12-20T10:26:41;9.10;94.00
38788;DHT22;24536;45.488;12.238;2023-12-20T10:29:07;9.10;93.80
38788;DHT22;24536;45.488;12.238;2023-12-20T10:31:33;9.20;93.90
38788;DHT22;24536;45.488;12.238;2023-12-20T10:33:59;9.20;93.90
38788;DHT22;24536;45.488;12.238;2023-12-20T10:36:28;9.20;93.70
38788;DHT22;24536;45.488;12.238;2023-12-20T10:38:54;9.20;94.10
38788;DHT22;24536;45.488;12.238;2023-12-20T10:41:24;9.30;93.80
38788;DHT22;24536;45.488;12.238;2023-12-20T10:43:50;9.30;93.70
38788;DHT22;24536;45.488;12.238;2023-12-20T10:46:16;9.30;93.70
38788;DHT22;24536;45.488;12.238;2023-12-20T10:48:44;9.30;93.80
38788;DHT22;24536;45.488;12.238;2023-12-20T10:51:10;9.30;93.80
38788;DHT22;24536;45.488;12.238;2023-12-20T10:53:36;9.40;93.70
38788;DHT22;24536;45.488;12.238;2023-12-20T10:56:03;9.40;93.80
38788;DHT22;24536;45.488;12.238;2023-12-20T10:58:30;9.40;93.90
38788;DHT22;24536;45.488;12.238;2023-12-20T11:00:59;9.40;93.90
38788;DHT22;24536;45.488;12.238;2023-12-20T11:03:25;9.40;93.90
38788;DHT22;24536;45.488;12.238;2023-12-20T11:08:22;9.50;94.00
38788;DHT22;24536;45.488;12.238;2023-12-20T11:10:58;9.50;94.00
38788;DHT22;24536;45.488;12.238;2023-12-20T11:13:27;9.50;94.00
38788;DHT22;24536;45.488;12.238;2023-12-20T11:15:54;9.50;93.90
38788;DHT22;24536;45.488;12.238;2023-12-20T11:18:20;9.40;94.10
38788;DHT22;24536;45.488;12.238;2023-12-20T11:20:53;9.40;94.30
38788;DHT22;24536;45.488;12.238;2023-12-20T11:23:19;9.40;94.30
38788;DHT22;24536;45.488;12.238;2023-12-20T11:25:46;9.40;94.30
38788;DHT22;24536;45.488;12.238;2023-12-20T11:28:11;9.30;94.30
38788;DHT22;24536;45.488;12.238;2023-12-20T11:30:41;9.30;94.30
38788;DHT22;24536;45.488;12.238;2023-12-20T11:33:07;9.40;94.50
38788;DHT22;24536;45.488;12.238;2023-12-20T11:35:33;9.40;94.50
38788;DHT22;24536;45.488;12.238;2023-12-20T11:38:00;9.40;94.50
38788;DHT22;24536;45.488;12.238;2023-12-20T11:40:26;9.40;94.50
38788;DHT22;24536;45.488;12.238;2023-12-20T11:42:52;9.40;94.50
38788;DHT22;24536;45.488;12.238;2023-12-20T11:45:23;9.30;94.60
38788;DHT22;24536;45.488;12.238;2023-12-20T11:47:50;9.30;94.70
38788;DHT22;24536;45.488;12.238;2023-12-20T11:50:16;9.40;94.70
38788;DHT22;24536;45.488;12.238;2023-12-20T11:52:43;9.40;94.60
38788;DHT22;24536;45.488;12.238;2023-12-20T11:55:09;9.40;94.60
38788;DHT22;24536;45.488;12.238;2023-12-20T11:57:35;9.30;94.90
38788;DHT22;24536;45.488;12.238;2023-12-20T12:00:02;9.30;95.00
38788;DHT22;24536;45.488;12.238;2023-12-20T12:02:28;9.30;95.30
38788;DHT22;24536;45.488;12.238;2023-12-20T12:04:53;9.30;95.40
38788;DHT22;24536;45.488;12.238;2023-12-20T12:07:19;9.30;95.50
38788;DHT22;24536;45.488;12.238;2023-12-20T12:09:45;9.30;95.50
38788;DHT22;24536;45.488;12.238;2023-12-20T12:12:11;9.30;95.50
38788;DHT22;24536;45.488;12.238;2023-12-20T12:14:37;9.30;95.60
38788;DHT22;24536;45.488;12.238;2023-12-20T12:17:03;9.30;95.80
38788;DHT22;24536;45.488;12.238;2023-12-20T12:19:38;9.40;95.80
38788;DHT22;24536;45.488;12.238;2023-12-20T12:22:05;9.30;96.00
38788;DHT22;24536;45.488;12.238;2023-12-20T12:24:32;9.40;96.10
38788;DHT22;24536;45.488;12.238;2023-12-20T12:26:58;9.40;96.10
38788;DHT22;24536;45.488;12.238;2023-12-20T12:29:24;9.40;96.20
38788;DHT22;24536;45.488;12.238;2023-12-20T12:31:52;9.40;96.30
38788;DHT22;24536;45.488;12.238;2023-12-20T12:34:18;9.40;96.20
38788;DHT22;24536;45.488;12.238;2023-12-20T12:36:43;9.50;96.10
38788;DHT22;24536;45.488;12.238;2023-12-20T12:39:13;9.40;96.10
38788;DHT22;24536;45.488;12.238;2023-12-20T12:41:41;9.40;96.00
38788;DHT22;24536;45.488;12.238;2023-12-20T12:44:06;9.50;96.10
38788;DHT22;24536;45.488;12.238;2023-12-20T12:46:32;9.50;96.10
38788;DHT22;24536;45.488;12.238;2023-12-20T12:48:58;9.50;96.10
38788;DHT22;24536;45.488;12.238;2023-12-20T12:51:23;9.60;96.10
38788;DHT22;24536;45.488;12.238;2023-12-20T12:53:49;9.70;96.10
38788;DHT22;24536;45.488;12.238;2023-12-20T12:56:15;9.70;96.10
38788;DHT22;24536;45.488;12.238;2023-12-20T12:58:41;9.70;96.20
38788;DHT22;24536;45.488;12.238;2023-12-20T13:01:06;9.60;96.30
38788;DHT22;24536;45.488;12.238;2023-12-20T13:03:35;9.60;96.30
38788;DHT22;24536;45.488;12.238;2023-12-20T13:06:01;9.70;96.30
38788;DHT22;24536;45.488;12.238;2023-12-20T13:08:26;9.60;96.30
38788;DHT22;24536;45.488;12.238;2023-12-20T13:10:55;9.70;96.30
38788;DHT22;24536;45.488;12.238;2023-12-20T13:13:23;9.70;96.20
38788;DHT22;24536;45.488;12.238;2023-12-20T13:15:49;9.70;96.20
38788;DHT22;24536;45.488;12.238;2023-12-20T13:18:18;9.70;96.20
38788;DHT22;24536;45.488;12.238;2023-12-20T13:20:44;9.70;96.20
38788;DHT22;24536;45.488;12.238;2023-12-20T13:23:10;9.70;96.20
38788;DHT22;24536;45.488;12.238;2023-12-20T13:25:35;9.70;96.20
38788;DHT22;24536;45.488;12.238;2023-12-20T13:28:01;9.70;96.10
38788;DHT22;24536;45.488;12.238;2023-12-20T13:30:28;9.70;96.20
38788;DHT22;24536;45.488;12.238;2023-12-20T13:32:53;9.70;96.20
38788;DHT22;24536;45.488;12.238;2023-12-20T13:35:19;9.70;96.20
38788;DHT22;24536;45.488;12.238;2023-12-20T13:37:45;9.60;96.30
38788;DHT22;24536;45.488;12.238;2023-12-20T13:40:11;9.70;96.30
38788;DHT22;24536;45.488;12.238;2023-12-20T13:42:38;9.70;96.30
38788;DHT22;24536;45.488;12.238;2023-12-20T13:45:03;9.70;96.40
38788;DHT22;24536;45.488;12.238;2023-12-20T13:47:30;9.70;96.40
38788;DHT22;24536;45.488;12.238;2023-12-20T13:49:56;9.70;96.50
38788;DHT22;24536;45.488;12.238;2023-12-20T13:52:21;9.80;96.50
38788;DHT22;24536;45.488;12.238;2023-12-20T13:54:47;9.80;96.60
38788;DHT22;24536;45.488;12.238;2023-12-20T13:57:13;9.80;96.50
38788;DHT22;24536;45.488;12.238;2023-12-20T13:59:38;9.90;96.50
38788;DHT22;24536;45.488;12.238;2023-12-20T14:02:04;10.00;96.50
38788;DHT22;24536;45.488;12.238;2023-12-20T14:04:30;10.00;96.40
38788;DHT22;24536;45.488;12.238;2023-12-20T14:06:56;10.00;96.30
38788;DHT22;24536;45.488;12.238;2023-12-20T14:09:22;10.00;96.30
38788;DHT22;24536;45.488;12.238;2023-12-20T14:11:48;10.00;96.30
38788;DHT22;24536;45.488;12.238;2023-12-20T14:14:13;10.00;96.30
38788;DHT22;24536;45.488;12.238;2023-12-20T14:16:39;10.00;96.30
38788;DHT22;24536;45.488;12.238;2023-12-20T14:19:04;10.10;96.30
38788;DHT22;24536;45.488;12.238;2023-12-20T14:21:33;10.10;96.30
38788;DHT22;24536;45.488;12.238;2023-12-20T14:23:58;10.10;96.20
38788;DHT22;24536;45.488;12.238;2023-12-20T14:26:24;10.10;96.20
38788;DHT22;24536;45.488;12.238;2023-12-20T14:28:50;10.10;96.10
38788;DHT22;24536;45.488;12.238;2023-12-20T14:31:15;10.10;96.10
38788;DHT22;24536;45.488;12.238;2023-12-20T14:33:41;10.10;96.10
38788;DHT22;24536;45.488;12.238;2023-12-20T14:36:07;10.10;96.10
38788;DHT22;24536;45.488;12.238;2023-12-20T14:38:34;10.20;96.30
38788;DHT22;24536;45.488;12.238;2023-12-20T14:41:00;10.20;96.20
38788;DHT22;24536;45.488;12.238;2023-12-20T14:43:28;10.20;96.20
38788;DHT22;24536;45.488;12.238;2023-12-20T14:45:54;10.10;96.20
38788;DHT22;24536;45.488;12.238;2023-12-20T14:48:19;10.10;96.30
38788;DHT22;24536;45.488;12.238;2023-12-20T14:50:46;10.10;96.40
38788;DHT22;24536;45.488;12.238;2023-12-20T14:53:14;10.10;96.40
38788;DHT22;24536;45.488;12.238;2023-12-20T14:55:40;10.10;96.50
38788;DHT22;24536;45.488;12.238;2023-12-20T14:58:06;10.10;96.50
38788;DHT22;24536;45.488;12.238;2023-12-20T15:00:31;10.20;96.50
38788;DHT22;24536;45.488;12.238;2023-12-20T15:02:59;10.20;96.50
38788;DHT22;24536;45.488;12.238;2023-12-20T15:05:24;10.20;96.50
38788;DHT22;24536;45.488;12.238;2023-12-20T15:07:50;10.20;96.40
38788;DHT22;24536;45.488;12.238;2023-12-20T15:10:16;10.20;96.40
38788;DHT22;24536;45.488;12.238;2023-12-20T15:12:44;10.30;96.50
38788;DHT22;24536;45.488;12.238;2023-12-20T15:15:11;10.30;96.50
38788;DHT22;24536;45.488;12.238;2023-12-20T15:17:36;10.30;96.50
38788;DHT22;24536;45.488;12.238;2023-12-20T15:20:02;10.20;96.50
38788;DHT22;24536;45.488;12.238;2023-12-20T15:22:29;10.20;96.60
38788;DHT22;24536;45.488;12.238;2023-12-20T15:24:55;10.20;96.60
38788;DHT22;24536;45.488;12.238;2023-12-20T15:27:20;10.20;96.70